Flight Track Log - Related Links

Times and Time Zones

All times are in EDT time to prevent confusion due to time zone crossing. See the CMF5HF flight status page for this flight to view local times or setup timezone preferences in your user account.

Time Position Orientation Groundspeed Altitude Reporting Facility
EDT Latitude Longitude Course Direction KTS MPH feet Rate Location/Type
Thu 09:44:10 AM 39.0333 -84.1833 134° Southeast 195 224 2,400  Level Cincinnati TRACON
Thu 09:45:22 AM 38.9833 -84.1167 134° Southeast 204 235 3,400 794 Climbing Cincinnati TRACON
Thu 09:46:26 AM 38.9469 -84.0625 131° Southeast 209 241 4,200 762 Climbing Indianapolis Center
Thu 09:47:28 AM 38.9192 -83.9997 120° Southeast 217 250 5,000 823 Climbing Indianapolis Center
Thu 09:48:30 AM 38.9386 -83.9225 72° East 230 265 5,900 829 Climbing Indianapolis Center
Thu 09:49:31 AM 38.9553 -83.8503 73° East 220 253 6,700 829 Climbing Indianapolis Center
Thu 09:50:33 AM 38.9778 -83.7636 72° East 220 253 7,600 968 Climbing Indianapolis Center
Thu 09:51:35 AM 38.9967 -83.6911 71° East 217 250 8,700 1,161 Climbing Indianapolis Center
Thu 09:52:37 AM 39.0131 -83.6200 73° East 210 242 10,000 1,210 Climbing Indianapolis Center
Thu 09:53:39 AM 39.0297 -83.5508 73° East 205 236 11,200 1,258 Climbing Indianapolis Center
Thu 09:54:41 AM 39.0467 -83.4828 72° East 202 232 12,600 1,258 Climbing Indianapolis Center
Thu 09:55:43 AM 39.0639 -83.4133 72° East 202 232 13,800 1,355 Climbing Indianapolis Center
Thu 09:56:45 AM 39.0842 -83.3319 72° East 200 230 15,400 1,355 Climbing Indianapolis Center
Thu 09:57:47 AM 39.1006 -83.2642 73° East 199 229 16,600 1,161 Climbing Indianapolis Center
Thu 09:58:49 AM 39.1156 -83.1978 74° East 194 223 17,800 1,113 Climbing Indianapolis Center
Thu 09:59:51 AM 39.1311 -83.1319 73° East 192 221 18,900 1,024 Climbing Indianapolis Center
Thu 10:00:52 AM 39.1478 -83.0664 72° East 192 221 19,900 927 Climbing Indianapolis Center
Thu 10:01:54 AM 39.1631 -82.9989 74° East 196 226 20,800 823 Climbing Indianapolis Center
Thu 10:02:56 AM 39.1794 -82.9294 73° East 202 232 21,600 823 Climbing Indianapolis Center
Thu 10:03:58 AM 39.2003 -82.8433 73° East 208 239 22,500 823 Climbing Indianapolis Center
Thu 10:05:00 AM 39.2172 -82.7717 73° East 209 241 23,300 726 Climbing Indianapolis Center
Thu 10:06:02 AM 39.2347 -82.6978 73° East 213 245 24,000 629 Climbing Indianapolis Center
Thu 10:07:04 AM 39.2533 -82.6222 72° East 220 253 24,600 484 Climbing Indianapolis Center
Thu 10:08:06 AM 39.2703 -82.5464 74° East 221 254 25,000 194 Climbing Indianapolis Center
Thu 10:09:08 AM 39.2903 -82.4611 73° East 241 277 25,000  Level Indianapolis Center
Thu 10:10:10 AM 39.3117 -82.3694 73° East 261 300 25,000  Level Indianapolis Center
Thu 10:11:12 AM 39.3369 -82.2586 74° East 268 308 25,000  Level Indianapolis Center
Thu 10:12:14 AM 39.3592 -82.1650 73° East 271 312 25,000  Level Indianapolis Center
Thu 10:13:16 AM 39.3814 -82.0708 73° East 273 314 25,000  Level Indianapolis Center
Thu 10:14:18 AM 39.4022 -81.9769 74° East 273 314 25,000  Level Indianapolis Center
Thu 10:15:20 AM 39.4236 -81.8822 74° East 273 314 25,000  Level Indianapolis Center
Thu 10:16:21 AM 39.4456 -81.7853 74° East 278 320 25,000  Level Indianapolis Center
Thu 10:17:23 AM 39.4681 -81.6897 73° East 277 319 25,000  Level Indianapolis Center
Thu 10:18:25 AM 39.4903 -81.5936 73° East 278 320 25,000  Level Indianapolis Center
Thu 10:19:27 AM 39.5156 -81.4786 74° East 277 319 25,000  Level Indianapolis Center
Thu 10:20:29 AM 39.5364 -81.3833 74° East 275 316 25,000  Level Indianapolis Center
Thu 10:21:31 AM 39.5583 -81.2875 73° East 275 316 25,000  Level Indianapolis Center
Thu 10:22:33 AM 39.5786 -81.1917 75° East 278 320 25,000  Level Indianapolis Center
Thu 10:23:34 AM 39.6000 -81.0967 74° East 275 316 25,000  Level Indianapolis Center
Thu 10:24:36 AM 39.6211 -81.0000 74° East 277 319 25,000  Level Indianapolis Center
Thu 10:25:38 AM 39.6422 -80.9050 74° East 274 315 25,000  Level Indianapolis Center
Thu 10:26:40 AM 39.6622 -80.8114 74° East 271 312 25,000  Level Indianapolis Center
Thu 10:27:42 AM 39.6875 -80.6972 74° East 273 314 25,000  Level Indianapolis Center
Thu 10:28:44 AM 39.7086 -80.6033 74° East 271 312 25,000  Level Indianapolis Center
Thu 10:29:40 AM 39.7294 -80.5211 72° East 268 308 25,000  Level Cleveland Center
Thu 10:30:40 AM 39.7481 -80.4264 76° East 268 308 25,000  Level Cleveland Center
Thu 10:31:40 AM 39.7689 -80.3292 74° East 268 308 25,000  Level Cleveland Center
Thu 10:32:40 AM 39.7894 -80.2319 75° East 268 308 25,000  Level Cleveland Center
Thu 10:33:40 AM 39.8100 -80.1372 74° East 268 308 25,000  Level Cleveland Center
Thu 10:34:40 AM 39.8303 -80.0425 74° East 268 308 25,000  Level Cleveland Center
Thu 10:35:40 AM 39.8506 -79.9478 74° East 268 308 25,000  Level Cleveland Center
Thu 10:36:40 AM 39.8708 -79.8500 75° East 268 308 25,000  Level Cleveland Center
Thu 10:37:40 AM 39.8892 -79.7525 76° East 268 308 25,000  Level Cleveland Center
Thu 10:38:40 AM 39.9092 -79.6575 75° East 268 308 25,000  Level Cleveland Center
Thu 10:39:40 AM 39.9292 -79.5597 75° East 268 308 25,000  Level Cleveland Center
Thu 10:40:40 AM 39.9492 -79.4647 75° East 268 308 25,000  Level Cleveland Center
Thu 10:41:40 AM 39.9689 -79.3667 75° East 268 308 25,000  Level Cleveland Center
Thu 10:42:40 AM 39.9908 -79.2717 73° East 268 308 25,000  Level Cleveland Center
Thu 10:43:40 AM 40.0083 -79.1708 77° East 273 314 25,000  Level Cleveland Center
Thu 10:44:40 AM 40.0281 -79.0756 75° East 273 314 25,000  Level Cleveland Center
Thu 10:45:40 AM 40.0475 -78.9775 75° East 278 320 25,000  Level Cleveland Center
Thu 10:46:40 AM 40.0647 -78.8686 78° East 278 320 25,000  Level Cleveland Center
Thu 10:47:40 AM 40.0861 -78.7703 74° East 278 320 25,000  Level Cleveland Center
Thu 10:48:40 AM 40.1053 -78.6722 76° East 278 320 25,000  Level Cleveland Center
Thu 10:49:40 AM 40.1244 -78.5711 76° East 278 320 25,000  Level Cleveland Center
Thu 10:50:40 AM 40.1436 -78.4728 76° East 278 320 25,000  Level Cleveland Center
Thu 10:51:40 AM 40.1606 -78.3853 76° East 278 320 25,000  Level Cleveland Center
Thu 10:52:40 AM 40.1944 -78.3000 62° Northeast 272 313 25,000  Level Cleveland Center
Thu 10:53:40 AM 40.2628 -78.2731 17° North 233 268 25,000  Level Cleveland Center
Thu 10:54:40 AM 40.3308 -78.2436 18° North 238 274 25,000  Level Cleveland Center
Thu 10:55:17 AM 40.3786 -78.2208 20° North 242 278 25,000  Level New York Center
Thu 10:56:18 AM 40.4431 -78.1950 17° North 264 304 25,000  Level New York Center
Thu 10:57:19 AM 40.5094 -78.1667 18° North 264 304 25,000  Level New York Center
Thu 10:58:20 AM 40.5419 -78.0800 64° Northeast 244 281 25,000  Level New York Center
Thu 10:59:18 AM 40.5608 -77.9753 77° East 252 290 25,000  Level New York Center
Thu 11:00:19 AM 40.5781 -77.8622 79° East 282 325 25,000  Level New York Center
Thu 11:01:19 AM 40.5967 -77.7575 77° East 287 330 25,000  Level New York Center
Thu 11:02:20 AM 40.6131 -77.6553 78° East 287 330 25,000  Level New York Center
Thu 11:03:18 AM 40.6294 -77.5531 78° East 287 330 25,000  Level New York Center
Thu 11:04:18 AM 40.6436 -77.4531 79° East 287 330 25,000  Level New York Center
Thu 11:05:18 AM 40.6578 -77.3478 80° East 287 330 25,000  Level New York Center
Thu 11:06:19 AM 40.6711 -77.2561 79° East 287 330 25,000 -344 Level New York Center
Thu 11:07:20 AM 40.6872 -77.1536 78° East 287 330 24,300 -807 Descending New York Center
Thu 11:08:18 AM 40.7036 -77.0428 79° East 293 337 23,400 -908 Descending New York Center
Thu 11:09:19 AM 40.7203 -76.9239 79° East 309 356 22,500 -984 Descending New York Center
Thu 11:10:20 AM 40.7342 -76.8128 81° East 314 361 21,400 -1,059 Descending New York Center
Thu 11:11:18 AM 40.7503 -76.7017 79° East 309 356 20,400 -1,109 Descending New York Center
Thu 11:12:19 AM 40.7661 -76.5908 79° East 309 356 19,200 -1,250 Descending New York Center
Thu 11:13:18 AM 40.7839 -76.4828 78° East 298 343 17,900 -1,300 Descending New York Center
Thu 11:14:19 AM 40.7978 -76.3686 81° East 292 336 16,600 -1,240 Descending New York Center
Thu 11:15:19 AM 40.8128 -76.2683 79° East 292 336 15,400 -1,261 Descending New York Center
Thu 11:16:18 AM 40.8258 -76.1653 80° East 287 330 14,100 -1,210 Descending New York Center
Thu 11:17:18 AM 40.8383 -76.0731 80° East 287 330 13,000 -1,190 Descending New York Center
Thu 11:18:19 AM 40.8539 -75.9589 80° East 287 330 11,700 -1,412 Descending New York Center
Thu 11:19:17 AM 40.8686 -75.8614 79° East 282 325 10,200 -1,462 Descending New York Center
Thu 11:20:18 AM 40.8806 -75.7744 80° East 271 312 8,800 -1,388 Descending New York Center
Thu 11:21:18 AM 40.8931 -75.6792 80° East 271 312 7,400 -1,488 Descending New York Center
Thu 11:22:19 AM 40.9056 -75.5758 81° East 266 306 5,800 -1,190 Descending New York Center
Thu 11:23:19 AM 40.9153 -75.4858 82° East 255 293 5,000 -397 Descending New York Center
Thu 11:24:20 AM 40.9267 -75.4097 79° East 243 280 5,000  Level New York Center
Thu 11:25:18 AM 40.9386 -75.3197 80° East 229 264 5,000  Level New York Center
Thu 11:26:19 AM 40.9500 -75.2383 79° East 229 264 5,000  Level New York Center
Thu 11:27:19 AM 40.9594 -75.1536 82° East 229 264 5,000  Level New York Center
Thu 11:28:18 AM 40.9706 -75.0775 79° East 229 264 5,000  Level New York Center
Thu 11:29:18 AM 40.9819 -74.9903 80° East 234 269 5,000 -99 Level New York Center
Thu 11:30:19 AM 40.9894 -74.8972 84° East 234 269 4,800 -492 Descending New York Center
Thu 11:31:20 AM 40.9947 -74.8094 85° East 234 269 4,000 -403 Descending New York Center
Thu 11:32:18 AM 41.0014 -74.7303 84° East 228 262 4,000 -51 Level New York Center
Thu 11:33:18 AM 41.0081 -74.6564 83° East 208 239 3,900 -333 Descending New York Center
Thu 11:33:48 AM 41.0167 -74.6167 74° East 224 258 3,500 -600 Descending New York TRACON
Thu 11:34:48 AM 41.0167 -74.5333 90° East 214 246 3,000 -250 Descending New York TRACON
Thu 11:35:48 AM 41.0167 -74.4667 90° East 181 208 3,000  Level New York TRACON
Thu 11:36:54 AM 41.0333 -74.4000 72° East 191 220 3,000  Level New York TRACON
Thu 11:37:48 AM 41.0333 -74.3333 90° East 198 228 3,000  Level New York TRACON
Thu 11:38:48 AM 41.0333 -74.2500 90° East 198 228 3,000 -300 Level New York TRACON
Thu 11:39:48 AM 41.0333 -74.2000 90° East 186 214 2,400 -500 Descending New York TRACON
Thu 11:40:48 AM 40.9833 -74.2000 180° South 135 155 2,000 -200 Descending New York TRACON
Thu 11:41:48 AM 40.9500 -74.2167 201° Southwest 116 133 2,000 -300 Level New York TRACON
Thu 11:42:48 AM 40.9333 -74.2333 217° Southwest 96 110 1,400 -550 Descending New York TRACON
Thu 11:43:48 AM 40.9167 -74.2500 217° Southwest 95 109 900 -500 Descending New York TRACON
Thu 11:46:00 AM 40.8667 -74.2667 197° South  Level FlightAware Approximate
Thu 11:53:00 AM 40.8752 -74.2814 197° South  Level Estimated

Login

Don't have an account? Register now (free) for customized features, flight alerts, and more!